Time;durP1;ratioP1;P1;durP2;ratioP2;P2;SDS_P1;SDS_P2;PMS_P1;PMS_P2;Temp;Humidity;BMP_temperature;BMP_pressure;BME280_temperature;BME280_humidity;BME280_pressure;Samples;Min_cycle;Max_cycle;Signal;HPM_P1;HPM_P2
2021/01/10 00:00:16;;;;;;;9.50;8.60;;;4.40;58.30;;;;;;5091170;28;20466;-78
2021/01/10 00:02:44;;;;;;;10.10;8.83;;;4.50;58.20;;;;;;5086345;28;20447;-77
2021/01/10 00:05:18;;;;;;;10.13;8.30;;;4.40;58.10;;;;;;5092784;28;20460;-76
2021/01/10 00:07:44;;;;;;;11.73;8.93;;;4.40;58.20;;;;;;5081185;28;20491;-77
2021/01/10 00:10:12;;;;;;;11.57;8.40;;;4.40;58.10;;;;;;5092513;28;20478;-78
2021/01/10 00:12:39;;;;;;;9.87;8.03;;;4.50;58.10;;;;;;5089798;28;20443;-77
2021/01/10 00:15:08;;;;;;;9.30;7.57;;;4.50;58.00;;;;;;5090846;28;20472;-76
2021/01/10 00:17:37;;;;;;;10.63;9.00;;;4.40;57.80;;;;;;5092385;28;20859;-77
2021/01/10 00:20:06;;;;;;;11.23;8.87;;;4.40;57.70;;;;;;5090548;28;20463;-76
2021/01/10 00:22:33;;;;;;;8.73;7.20;;;4.40;57.50;;;;;;5085719;28;20479;-77
2021/01/10 00:24:59;;;;;;;14.10;7.80;;;4.30;57.30;;;;;;5079441;28;20855;-77
2021/01/10 00:27:27;;;;;;;14.60;8.57;;;4.30;57.40;;;;;;5096059;28;20512;-77
2021/01/10 00:29:54;;;;;;;10.93;8.10;;;4.20;57.20;;;;;;5095489;28;20941;-77
2021/01/10 00:32:21;;;;;;;10.10;8.40;;;4.20;57.40;;;;;;5093529;28;20457;-77
2021/01/10 00:34:48;;;;;;;9.37;8.47;;;4.10;57.50;;;;;;5093307;28;21988;-77
2021/01/10 00:37:17;;;;;;;12.60;9.37;;;4.10;57.50;;;;;;5095884;28;20947;-77
2021/01/10 00:39:44;;;;;;;11.63;9.33;;;4.10;57.50;;;;;;5093164;28;20443;-77
2021/01/10 00:42:12;;;;;;;10.97;9.20;;;4.10;57.70;;;;;;5094664;28;20448;-76
2021/01/10 00:44:40;;;;;;;12.40;10.50;;;4.10;57.90;;;;;;5075200;28;20474;-76
2021/01/10 00:47:08;;;;;;;14.97;11.37;;;4.20;58.10;;;;;;5094061;28;20497;-76
2021/01/10 00:49:34;;;;;;;16.23;13.37;;;4.30;58.30;;;;;;5094887;28;20451;-77
2021/01/10 00:52:01;;;;;;;20.33;14.20;;;4.30;58.50;;;;;;5093961;28;20968;-77
2021/01/10 00:54:29;;;;;;;20.43;14.37;;;4.40;58.50;;;;;;5095231;28;20458;-76
2021/01/10 00:56:55;;;;;;;18.87;15.37;;;4.40;58.40;;;;;;5093821;28;20974;-77
2021/01/10 00:59:22;;;;;;;20.30;14.47;;;4.50;58.50;;;;;;5095548;28;20527;-77
2021/01/10 01:01:48;;;;;;;20.17;14.30;;;4.50;58.70;;;;;;5089754;28;20975;-76
2021/01/10 01:04:16;;;;;;;21.63;15.50;;;4.60;58.70;;;;;;5074565;28;20802;-76
2021/01/10 01:06:42;;;;;;;17.23;14.00;;;4.60;58.60;;;;;;5080234;28;20495;-76
2021/01/10 01:09:09;;;;;;;25.33;16.70;;;4.70;58.50;;;;;;5095226;28;20479;-76
2021/01/10 01:11:37;;;;;;;21.93;15.97;;;4.70;58.40;;;;;;5091372;28;20485;-76
2021/01/10 01:14:05;;;;;;;21.23;14.07;;;4.70;58.40;;;;;;5074823;28;20543;-77
2021/01/10 01:16:32;;;;;;;21.77;15.40;;;4.70;58.30;;;;;;5077267;28;20518;-77
2021/01/10 01:18:58;;;;;;;20.27;15.30;;;4.70;58.30;;;;;;5094336;28;20812;-77
2021/01/10 01:21:26;;;;;;;18.63;13.80;;;4.60;58.20;;;;;;5094382;28;20436;-77
2021/01/10 01:23:52;;;;;;;18.60;13.20;;;4.70;58.50;;;;;;5094466;28;20549;-77
2021/01/10 01:26:20;;;;;;;16.30;13.33;;;4.70;58.50;;;;;;5094086;28;20550;-77
2021/01/10 01:28:47;;;;;;;18.60;14.63;;;4.70;58.50;;;;;;5075885;28;20457;-77
2021/01/10 01:31:15;;;;;;;17.63;15.10;;;4.70;58.60;;;;;;5087669;28;20528;-77
2021/01/10 01:33:43;;;;;;;18.07;12.90;;;4.70;58.70;;;;;;5079073;28;20845;-77
2021/01/10 01:36:13;;;;;;;18.53;15.07;;;4.60;58.60;;;;;;5088674;28;20536;-77
2021/01/10 01:38:41;;;;;;;17.93;14.40;;;4.70;58.80;;;;;;5094056;28;20456;-77
2021/01/10 01:41:08;;;;;;;20.30;16.30;;;4.60;58.70;;;;;;5093480;28;21013;-77
2021/01/10 01:43:36;;;;;;;17.23;14.90;;;4.60;58.70;;;;;;5093918;28;20451;-76
2021/01/10 01:46:03;;;;;;;18.13;13.80;;;4.60;58.60;;;;;;5093632;28;20857;-77
2021/01/10 01:48:30;;;;;;;23.13;15.20;;;4.60;58.60;;;;;;5093788;28;20471;-77
2021/01/10 01:50:58;;;;;;;19.63;15.53;;;4.60;58.70;;;;;;5093449;28;20468;-77
2021/01/10 01:53:25;;;;;;;21.07;15.90;;;4.60;58.70;;;;;;5084232;28;20458;-77
2021/01/10 01:55:54;;;;;;;17.60;13.90;;;4.60;58.70;;;;;;5086608;28;20470;-77
2021/01/10 01:58:21;;;;;;;17.17;14.67;;;4.60;58.70;;;;;;5091929;28;20965;-77
2021/01/10 02:00:48;;;;;;;19.53;14.40;;;4.50;58.60;;;;;;5093376;28;20467;-77
2021/01/10 02:03:23;;;;;;;19.07;13.70;;;4.60;58.80;;;;;;5089869;28;20452;-78
2021/01/10 02:05:51;;;;;;;18.60;13.93;;;4.50;58.70;;;;;;5091999;28;20935;-78
2021/01/10 02:08:19;;;;;;;16.43;14.57;;;4.50;58.70;;;;;;5086219;28;20476;-77
2021/01/10 02:10:47;;;;;;;16.90;13.63;;;4.60;58.90;;;;;;5081775;28;20463;-77
2021/01/10 02:13:16;;;;;;;19.87;13.10;;;4.60;58.90;;;;;;5088788;28;20440;-77
2021/01/10 02:15:44;;;;;;;16.07;13.27;;;4.60;58.80;;;;;;5074145;28;20475;-76
2021/01/10 02:18:11;;;;;;;17.30;12.43;;;4.50;58.60;;;;;;5078324;28;20999;-77
2021/01/10 02:20:39;;;;;;;16.00;12.80;;;4.50;58.40;;;;;;5093169;28;20864;-77
2021/01/10 02:23:11;;;;;;;16.30;12.70;;;4.50;58.40;;;;;;5093148;28;20458;-77
2021/01/10 02:25:42;;;;;;;13.63;10.33;;;4.40;58.40;;;;;;5088747;28;20526;-77
2021/01/10 02:28:09;;;;;;;12.77;9.87;;;4.30;58.20;;;;;;5093080;28;20494;-77
2021/01/10 02:30:39;;;;;;;16.37;13.20;;;4.20;58.10;;;;;;5092623;28;20521;-77
2021/01/10 02:33:12;;;;;;;12.37;11.07;;;4.10;58.20;;;;;;5093092;28;20451;-77
2021/01/10 02:35:40;;;;;;;15.00;10.53;;;4.00;58.50;;;;;;5093270;28;20447;-77
2021/01/10 02:38:38;;;;;;;12.43;11.03;;;3.90;58.70;;;;;;5088484;28;20500;-77
2021/01/10 02:41:25;;;;;;;13.90;11.33;;;3.90;58.80;;;;;;5080008;28;20535;-77
2021/01/10 02:44:02;;;;;;;12.30;9.87;;;3.80;58.90;;;;;;5092957;28;20487;-77
2021/01/10 02:46:29;;;;;;;13.40;10.40;;;3.80;58.90;;;;;;5080084;28;20608;-77
2021/01/10 02:48:56;;;;;;;15.40;10.27;;;3.70;59.00;;;;;;5093445;28;20976;-77
2021/01/10 02:51:23;;;;;;;12.87;9.40;;;3.70;59.10;;;;;;5090691;28;20481;-77
2021/01/10 02:53:49;;;;;;;18.23;12.30;;;3.70;59.00;;;;;;5090641;28;20961;-77
2021/01/10 02:56:17;;;;;;;14.40;11.03;;;3.70;59.00;;;;;;5086260;28;20476;-76
2021/01/10 02:58:43;;;;;;;12.40;10.57;;;3.60;59.00;;;;;;5088068;28;20454;-76
2021/01/10 03:01:13;;;;;;;13.53;10.40;;;3.60;59.20;;;;;;5092359;28;20454;-75
2021/01/10 03:03:40;;;;;;;14.00;10.90;;;3.60;59.30;;;;;;5092942;28;20448;-76
2021/01/10 03:06:08;;;;;;;10.87;9.67;;;3.60;59.20;;;;;;5077120;28;20521;-76
2021/01/10 03:08:37;;;;;;;13.60;12.00;;;3.60;59.20;;;;;;5084642;28;20473;-76
2021/01/10 03:11:04;;;;;;;14.40;10.20;;;3.60;59.20;;;;;;5092073;28;20464;-75
2021/01/10 03:13:33;;;;;;;12.83;9.47;;;3.50;59.30;;;;;;5092521;28;20504;-76
2021/01/10 03:16:00;;;;;;;14.43;11.47;;;3.50;59.40;;;;;;5088315;28;20454;-76
2021/01/10 03:18:27;;;;;;;12.67;10.80;;;3.50;59.40;;;;;;5078076;28;20474;-76
2021/01/10 03:20:53;;;;;;;12.80;10.37;;;3.50;59.40;;;;;;5091970;28;20547;-77
2021/01/10 03:23:20;;;;;;;11.50;9.53;;;3.50;59.40;;;;;;5092822;28;20509;-78
2021/01/10 03:25:46;;;;;;;16.50;11.10;;;3.50;59.50;;;;;;5090578;28;20535;-76
2021/01/10 03:28:13;;;;;;;11.70;10.33;;;3.40;59.50;;;;;;5089128;28;21032;-77
2021/01/10 03:30:40;;;;;;;15.80;10.40;;;3.40;59.50;;;;;;5072824;28;20451;-77
2021/01/10 03:33:07;;;;;;;10.67;9.23;;;3.40;59.60;;;;;;5084459;28;20458;-76
2021/01/10 03:35:35;;;;;;;13.27;9.57;;;3.40;59.60;;;;;;5091238;28;20957;-75
2021/01/10 03:38:03;;;;;;;12.07;9.77;;;3.40;59.60;;;;;;5090664;28;21000;-76
2021/01/10 03:40:29;;;;;;;14.77;10.80;;;3.30;59.60;;;;;;5089434;28;20454;-77
2021/01/10 03:42:56;;;;;;;17.43;12.20;;;3.30;59.70;;;;;;5080293;28;20547;-75
2021/01/10 03:45:23;;;;;;;13.50;10.10;;;3.30;59.80;;;;;;5091948;28;20464;-78
2021/01/10 03:47:50;;;;;;;18.40;10.93;;;3.30;59.90;;;;;;5091239;28;20519;-77
2021/01/10 03:50:17;;;;;;;10.70;9.37;;;3.30;60.10;;;;;;5074962;28;20992;-77
2021/01/10 03:52:44;;;;;;;11.03;9.93;;;3.30;60.20;;;;;;5092511;28;20948;-76
2021/01/10 03:55:11;;;;;;;15.00;10.10;;;3.30;60.30;;;;;;5091286;28;20531;-76
2021/01/10 03:57:38;;;;;;;14.80;10.93;;;3.40;60.40;;;;;;5095752;28;20473;-76
2021/01/10 04:00:07;;;;;;;14.93;12.90;;;3.40;60.50;;;;;;5095657;28;20532;-76
2021/01/10 04:02:33;;;;;;;15.13;10.53;;;3.40;60.40;;;;;;5096656;28;20454;-76
2021/01/10 04:05:01;;;;;;;14.20;10.50;;;3.50;60.50;;;;;;5081639;28;20482;-76
2021/01/10 04:07:27;;;;;;;16.77;11.10;;;3.50;60.60;;;;;;5087486;28;20498;-76
2021/01/10 04:09:54;;;;;;;17.67;11.33;;;3.60;60.60;;;;;;5086661;28;20456;-77
2021/01/10 04:12:20;;;;;;;16.20;10.63;;;3.50;60.50;;;;;;5096394;28;20453;-76
2021/01/10 04:14:47;;;;;;;13.87;10.83;;;3.60;60.60;;;;;;5095856;28;20459;-76
2021/01/10 04:17:13;;;;;;;14.60;10.00;;;3.60;60.60;;;;;;5096264;28;20948;-75
2021/01/10 04:19:40;;;;;;;12.77;10.80;;;3.60;60.50;;;;;;5087682;28;20472;-76
2021/01/10 04:22:07;;;;;;;14.90;10.27;;;3.60;60.30;;;;;;5075799;28;20962;-76
2021/01/10 04:24:34;;;;;;;13.53;11.57;;;3.60;60.30;;;;;;5082544;28;20451;-76
2021/01/10 04:27:01;;;;;;;11.93;10.00;;;3.60;60.50;;;;;;5095104;28;20494;-76
2021/01/10 04:29:27;;;;;;;12.63;10.20;;;3.60;60.40;;;;;;5095401;28;20450;-76
2021/01/10 04:31:56;;;;;;;15.67;10.90;;;3.70;60.50;;;;;;5096176;28;20446;-77
2021/01/10 04:34:22;;;;;;;14.80;9.73;;;3.80;60.40;;;;;;5091877;28;21037;-77
2021/01/10 04:36:49;;;;;;;11.90;10.27;;;3.90;60.20;;;;;;5089166;28;20476;-76
2021/01/10 04:39:17;;;;;;;10.90;9.77;;;3.90;59.70;;;;;;5094243;28;20825;-77
2021/01/10 04:41:44;;;;;;;12.20;9.57;;;3.90;59.80;;;;;;5075276;28;20470;-76
2021/01/10 04:44:13;;;;;;;16.70;11.80;;;4.00;59.90;;;;;;5076203;28;21014;-76
2021/01/10 04:46:40;;;;;;;12.83;10.30;;;4.00;59.70;;;;;;5095799;28;20945;-76
2021/01/10 04:49:07;;;;;;;11.70;8.87;;;4.10;59.60;;;;;;5093379;28;20473;-77
2021/01/10 04:51:36;;;;;;;11.97;9.77;;;4.10;59.20;;;;;;5088448;28;20940;-77
2021/01/10 04:54:04;;;;;;;12.93;10.47;;;4.10;59.30;;;;;;5078257;28;20507;-77
2021/01/10 04:56:31;;;;;;;11.47;9.50;;;4.00;59.50;;;;;;5075550;28;20456;-76
2021/01/10 04:59:02;;;;;;;14.47;9.97;;;4.00;59.60;;;;;;5091296;28;20489;-76
2021/01/10 05:01:31;;;;;;;12.03;10.60;;;4.00;59.60;;;;;;5094976;28;20549;-76
2021/01/10 05:03:59;;;;;;;12.30;10.00;;;4.00;59.60;;;;;;5092549;28;20527;-77
2021/01/10 05:06:26;;;;;;;21.43;11.20;;;4.00;59.90;;;;;;5082357;28;20482;-76
2021/01/10 05:09:06;;;;;;;14.30;9.63;;;4.00;60.10;;;;;;5092814;28;20477;-78
2021/01/10 05:11:36;;;;;;;10.70;9.63;;;4.00;60.20;;;;;;5084832;28;20460;-78
2021/01/10 05:14:03;;;;;;;13.70;10.97;;;4.00;60.10;;;;;;5093836;28;20452;-78
2021/01/10 05:16:34;;;;;;;12.60;9.23;;;4.10;60.00;;;;;;5089902;28;20477;-77
2021/01/10 05:19:01;;;;;;;12.60;9.93;;;4.20;59.70;;;;;;5091086;28;20448;-78
2021/01/10 05:21:29;;;;;;;14.83;10.57;;;4.20;59.40;;;;;;5086422;28;20955;-78
2021/01/10 05:23:58;;;;;;;12.13;9.20;;;4.30;59.30;;;;;;5091526;28;20962;-77
2021/01/10 05:26:32;;;;;;;11.27;8.90;;;4.30;59.30;;;;;;5092648;28;20943;-77
2021/01/10 05:29:05;;;;;;;14.37;10.50;;;4.30;59.10;;;;;;5093994;28;20449;-76
2021/01/10 05:31:33;;;;;;;12.90;9.70;;;4.40;59.00;;;;;;5081309;28;20445;-76
2021/01/10 05:34:00;;;;;;;10.87;9.70;;;4.30;58.50;;;;;;5091612;28;20467;-77
2021/01/10 05:36:29;;;;;;;13.43;9.93;;;4.40;58.70;;;;;;5087697;28;20955;-77
2021/01/10 05:38:56;;;;;;;12.07;8.93;;;4.40;58.60;;;;;;5092270;28;20444;-77
2021/01/10 05:41:24;;;;;;;9.97;8.30;;;4.40;58.40;;;;;;5090595;28;20474;-77
2021/01/10 05:44:00;;;;;;;13.83;10.63;;;4.40;58.30;;;;;;5074350;28;20454;-77
2021/01/10 05:46:30;;;;;;;11.30;8.93;;;4.50;58.40;;;;;;5083133;28;20462;-77
2021/01/10 05:48:58;;;;;;;15.70;9.23;;;4.50;58.20;;;;;;5082921;28;20471;-77
2021/01/10 05:51:28;;;;;;;12.10;9.83;;;4.50;58.00;;;;;;5090387;28;20455;-77
2021/01/10 05:53:55;;;;;;;12.30;9.63;;;4.50;57.90;;;;;;5086144;28;20444;-76
2021/01/10 05:56:22;;;;;;;12.47;8.77;;;4.50;57.90;;;;;;5091419;28;20465;-77
2021/01/10 05:58:56;;;;;;;13.40;9.40;;;4.50;57.70;;;;;;5092302;28;20489;-77
2021/01/10 06:01:25;;;;;;;10.63;8.73;;;4.40;57.70;;;;;;5089275;28;20467;-76
2021/01/10 06:03:52;;;;;;;13.10;9.70;;;4.40;57.90;;;;;;5093399;28;20487;-76
2021/01/10 06:06:19;;;;;;;11.53;10.37;;;4.40;57.80;;;;;;5093207;28;20564;-75
2021/01/10 06:08:47;;;;;;;11.00;9.27;;;4.50;57.90;;;;;;5080437;28;20475;-76
2021/01/10 06:11:18;;;;;;;15.10;10.77;;;4.50;57.80;;;;;;5092879;28;20501;-76
2021/01/10 06:13:48;;;;;;;12.70;9.57;;;4.50;57.80;;;;;;5085726;28;20459;-76
2021/01/10 06:16:15;;;;;;;11.80;8.90;;;4.50;57.80;;;;;;5079190;28;20565;-76
2021/01/10 06:18:45;;;;;;;12.87;10.53;;;4.40;57.90;;;;;;5090458;28;20498;-76
2021/01/10 06:21:19;;;;;;;13.27;8.30;;;4.40;58.10;;;;;;5087293;28;20527;-76
2021/01/10 06:23:49;;;;;;;9.87;8.87;;;4.40;57.90;;;;;;5080794;28;20587;-76
2021/01/10 06:26:19;;;;;;;11.23;9.80;;;4.40;58.00;;;;;;5073698;28;20466;-77
2021/01/10 06:28:57;;;;;;;12.83;9.77;;;4.40;58.20;;;;;;5083741;28;20463;-77
2021/01/10 06:31:26;;;;;;;13.07;10.47;;;4.40;58.30;;;;;;5091568;28;20958;-77
2021/01/10 06:34:00;;;;;;;10.43;7.80;;;4.30;58.40;;;;;;5091300;28;20459;-77
2021/01/10 06:36:29;;;;;;;11.23;8.97;;;4.30;58.40;;;;;;5092303;28;20451;-76
2021/01/10 06:39:04;;;;;;;10.70;9.20;;;4.20;58.40;;;;;;5091405;28;20550;-77
2021/01/10 06:42:07;;;;;;;10.93;9.77;;;4.20;58.50;;;;;;5092824;28;20453;-76
2021/01/10 06:44:46;;;;;;;11.57;9.53;;;4.20;58.80;;;;;;5081804;28;20489;-77
2021/01/10 06:47:18;;;;;;;11.47;9.53;;;4.30;58.60;;;;;;5091916;28;20490;-77
2021/01/10 06:49:46;;;;;;;13.33;9.70;;;4.30;58.50;;;;;;5082051;28;20452;-76
2021/01/10 06:52:14;;;;;;;11.87;9.50;;;4.30;58.50;;;;;;5085415;28;20481;-76
2021/01/10 06:54:42;;;;;;;13.67;10.70;;;4.40;58.60;;;;;;5088797;28;20949;-77
2021/01/10 06:57:09;;;;;;;12.60;9.63;;;4.40;58.40;;;;;;5091408;28;20500;-77
2021/01/10 07:00:00;;;;;;;10.87;9.77;;;4.40;58.10;;;;;;5086779;28;20816;-76
2021/01/10 07:02:27;;;;;;;14.17;9.77;;;4.50;58.00;;;;;;5081802;28;21018;-76
2021/01/10 07:05:02;;;;;;;13.43;9.17;;;4.40;57.90;;;;;;5092518;28;20451;-75
2021/01/10 07:07:46;;;;;;;14.20;11.23;;;4.50;57.80;;;;;;5091923;28;20489;-76
2021/01/10 07:10:24;;;;;;;16.53;9.80;;;4.50;57.80;;;;;;5092716;28;20451;-76
2021/01/10 07:12:51;;;;;;;12.83;9.20;;;4.40;57.70;;;;;;5086061;28;20531;-75
2021/01/10 07:15:27;;;;;;;15.37;9.50;;;4.40;57.80;;;;;;5093115;28;20454;-75
2021/01/10 07:18:10;;;;;;;11.80;9.47;;;4.40;57.80;;;;;;5090848;28;20539;-76
2021/01/10 07:20:40;;;;;;;12.50;11.00;;;4.40;57.60;;;;;;5089588;28;20547;-78
2021/01/10 07:23:34;;;;;;;15.90;10.60;;;4.40;57.50;;;;;;5092717;28;20977;-77
2021/01/10 07:26:02;;;;;;;12.13;10.23;;;4.40;57.70;;;;;;5067206;28;20459;-77
2021/01/10 07:28:40;;;;;;;14.53;10.40;;;4.40;57.80;;;;;;5092524;28;20573;-78
2021/01/10 07:31:20;;;;;;;9.60;8.37;;;4.50;58.00;;;;;;5091419;28;20492;-77
2021/01/10 07:34:08;;;;;;;14.03;9.90;;;4.50;57.80;;;;;;5092329;28;20811;-77
2021/01/10 07:36:46;;;;;;;10.90;9.00;;;4.50;57.80;;;;;;5092749;28;20539;-77
2021/01/10 07:39:13;;;;;;;9.87;8.80;;;4.50;57.60;;;;;;5085426;28;20440;-77
2021/01/10 07:41:39;;;;;;;11.70;10.37;;;4.50;57.60;;;;;;5091527;28;20974;-77
2021/01/10 07:44:06;;;;;;;13.47;9.97;;;4.50;57.80;;;;;;5090556;28;20454;-77
2021/01/10 07:47:01;;;;;;;13.70;11.23;;;4.50;58.00;;;;;;5091186;28;20921;-77
2021/01/10 07:49:31;;;;;;;12.87;9.30;;;4.60;58.00;;;;;;5092820;28;20440;-77
2021/01/10 07:51:59;;;;;;;13.07;11.63;;;4.60;57.80;;;;;;5091856;28;20454;-77
2021/01/10 07:54:52;;;;;;;10.03;8.87;;;4.60;57.80;;;;;;5091536;28;20469;-77
2021/01/10 07:57:29;;;;;;;12.10;10.00;;;4.60;57.80;;;;;;5092322;28;20481;-78
2021/01/10 08:00:14;;;;;;;11.77;10.30;;;4.60;57.80;;;;;;5091723;28;20459;-76
2021/01/10 08:02:57;;;;;;;13.00;9.87;;;4.70;57.80;;;;;;5082367;28;20453;-76
2021/01/10 08:05:26;;;;;;;13.50;10.10;;;4.70;57.70;;;;;;5083273;28;20800;-77
2021/01/10 08:07:57;;;;;;;11.30;9.90;;;4.70;57.50;;;;;;5086761;28;20498;-77
2021/01/10 08:10:25;;;;;;;13.20;10.87;;;4.80;57.60;;;;;;5087344;28;20451;-77
2021/01/10 08:12:52;;;;;;;10.37;8.90;;;4.80;57.40;;;;;;5089029;28;20448;-78
2021/01/10 08:15:19;;;;;;;11.17;9.37;;;4.80;57.30;;;;;;5090932;28;21054;-79
2021/01/10 08:17:46;;;;;;;11.90;9.67;;;4.80;57.30;;;;;;5091232;28;20455;-79
2021/01/10 08:20:14;;;;;;;12.33;9.30;;;4.80;57.00;;;;;;5083783;28;20513;-78
2021/01/10 08:22:41;;;;;;;14.40;10.07;;;4.80;57.00;;;;;;5082383;28;20833;-80
2021/01/10 08:25:21;;;;;;;14.20;10.33;;;4.80;57.10;;;;;;5087798;28;20454;-80
2021/01/10 08:27:48;;;;;;;10.97;9.10;;;4.90;57.20;;;;;;5089610;28;20540;-79
2021/01/10 08:30:18;;;;;;;13.13;9.53;;;4.80;57.10;;;;;;5083511;28;20468;-79
2021/01/10 08:32:45;;;;;;;10.90;9.80;;;4.90;57.10;;;;;;5089956;28;20518;-78
2021/01/10 08:35:11;;;;;;;12.33;10.63;;;4.90;57.10;;;;;;5091318;28;20458;-79
2021/01/10 08:37:39;;;;;;;12.97;9.80;;;5.00;57.00;;;;;;5086067;28;20497;-81
2021/01/10 08:40:09;;;;;;;13.37;9.43;;;5.00;56.90;;;;;;5089530;28;20452;-80
2021/01/10 08:42:36;;;;;;;11.00;9.90;;;5.00;57.00;;;;;;5088234;28;20458;-81
2021/01/10 08:45:18;;;;;;;11.77;9.63;;;5.00;56.90;;;;;;5092474;28;20456;-81
2021/01/10 08:47:45;;;;;;;12.40;9.13;;;5.00;56.80;;;;;;5093923;28;20483;-79
2021/01/10 08:50:13;;;;;;;12.60;9.23;;;5.10;56.80;;;;;;5092440;28;20476;-78
2021/01/10 08:53:00;;;;;;;11.47;9.10;;;5.00;56.70;;;;;;5085350;28;20472;-80
2021/01/10 08:55:43;;;;;;;11.90;9.80;;;5.00;57.30;;;;;;5083279;28;20829;-79
2021/01/10 08:58:11;;;;;;;13.17;9.60;;;5.10;56.80;;;;;;5087352;28;20447;-79
2021/01/10 09:00:41;;;;;;;11.73;10.50;;;5.10;56.80;;;;;;5091271;28;20463;-81
2021/01/10 09:03:18;;;;;;;12.30;10.40;;;5.10;56.90;;;;;;5079510;28;20491;-80
2021/01/10 09:05:47;;;;;;;11.80;8.90;;;5.10;56.90;;;;;;5085104;28;20472;-76
2021/01/10 09:08:21;;;;;;;10.23;9.13;;;5.10;56.80;;;;;;5093735;28;20486;-78
2021/01/10 09:11:00;;;;;;;10.30;9.20;;;5.10;56.70;;;;;;5091796;28;20459;-76
2021/01/10 09:13:28;;;;;;;12.17;9.57;;;5.10;56.60;;;;;;5080672;28;20449;-77
2021/01/10 09:15:55;;;;;;;12.73;10.30;;;5.00;56.60;;;;;;5075036;28;20453;-78
2021/01/10 09:18:27;;;;;;;13.70;9.37;;;5.00;56.40;;;;;;5092565;28;20834;-77
2021/01/10 09:20:59;;;;;;;12.83;10.30;;;4.90;56.40;;;;;;5093411;28;20452;-78
2021/01/10 09:23:26;;;;;;;11.97;10.77;;;4.90;56.70;;;;;;5090339;28;20497;-75
2021/01/10 09:25:54;;;;;;;10.00;8.97;;;4.90;56.90;;;;;;5089326;28;20548;-75
2021/01/10 09:28:24;;;;;;;12.73;9.60;;;4.90;57.10;;;;;;5082635;28;20495;-77
2021/01/10 09:30:54;;;;;;;12.33;10.43;;;4.90;57.20;;;;;;5076619;28;20467;-77
2021/01/10 09:33:23;;;;;;;11.67;9.80;;;4.80;57.10;;;;;;5077725;28;20516;-77
2021/01/10 09:35:49;;;;;;;14.03;10.10;;;4.90;57.20;;;;;;5087814;28;20475;-75
2021/01/10 09:38:17;;;;;;;9.40;8.40;;;4.90;57.20;;;;;;5094366;28;20455;-76
2021/01/10 09:41:01;;;;;;;13.50;11.20;;;5.00;57.10;;;;;;5094346;28;20454;-77
2021/01/10 09:43:36;;;;;;;11.27;8.97;;;5.00;57.00;;;;;;5091207;28;20809;-77
2021/01/10 09:46:02;;;;;;;12.80;10.50;;;5.00;57.00;;;;;;5089869;28;20459;-75
2021/01/10 09:48:30;;;;;;;14.60;11.10;;;5.10;57.10;;;;;;5089480;28;20491;-78
2021/01/10 09:50:56;;;;;;;13.13;9.60;;;5.10;56.90;;;;;;5083312;28;20818;-77
2021/01/10 09:53:26;;;;;;;14.87;11.60;;;5.10;57.00;;;;;;5090941;28;20453;-77
2021/01/10 09:55:53;;;;;;;11.17;10.03;;;5.20;57.10;;;;;;5082383;28;20452;-77
2021/01/10 09:58:21;;;;;;;12.17;9.47;;;5.20;57.20;;;;;;5086143;28;20456;-77
2021/01/10 10:00:56;;;;;;;11.90;10.53;;;5.30;57.10;;;;;;5086071;28;20461;-77
2021/01/10 10:03:23;;;;;;;10.43;9.07;;;5.40;56.80;;;;;;5093887;28;20578;-77
2021/01/10 10:05:57;;;;;;;11.20;9.10;;;5.40;56.50;;;;;;5091014;28;20469;-77
2021/01/10 10:08:24;;;;;;;14.23;9.90;;;5.40;56.10;;;;;;5082213;28;20870;-78
2021/01/10 10:10:50;;;;;;;13.50;10.47;;;5.50;57.00;;;;;;5085348;28;20445;-77
2021/01/10 10:13:27;;;;;;;14.47;10.60;;;5.60;56.60;;;;;;5089963;28;20468;-76
2021/01/10 10:15:55;;;;;;;21.93;12.57;;;5.90;56.90;;;;;;5093604;28;20454;-77
2021/01/10 10:18:24;;;;;;;14.27;10.50;;;6.20;56.60;;;;;;5091025;28;21035;-77
2021/01/10 10:20:51;;;;;;;18.47;11.83;;;6.30;55.60;;;;;;5080162;28;20446;-77
2021/01/10 10:23:18;;;;;;;12.27;10.37;;;6.40;55.30;;;;;;5093851;28;21024;-76
2021/01/10 10:25:47;;;;;;;13.50;10.70;;;6.50;55.40;;;;;;5083463;28;20509;-78
2021/01/10 10:28:14;;;;;;;12.47;10.40;;;6.60;55.30;;;;;;5083651;28;20487;-77
2021/01/10 10:30:42;;;;;;;13.80;10.67;;;6.70;55.00;;;;;;5073645;28;20500;-76
2021/01/10 10:33:10;;;;;;;12.30;9.17;;;6.70;54.50;;;;;;5081352;28;20481;-77
2021/01/10 10:35:36;;;;;;;13.93;8.67;;;6.90;54.50;;;;;;5082928;28;20450;-76
2021/01/10 10:38:04;;;;;;;11.20;10.10;;;7.10;54.20;;;;;;5090750;28;20489;-77
2021/01/10 10:40:30;;;;;;;10.63;9.23;;;7.30;53.60;;;;;;5091642;28;20479;-77
2021/01/10 10:42:57;;;;;;;14.87;10.33;;;7.60;53.00;;;;;;5077274;28;20449;-77
2021/01/10 10:45:24;;;;;;;9.50;8.30;;;7.80;52.50;;;;;;5090997;28;20977;-77
2021/01/10 10:47:51;;;;;;;9.57;8.63;;;8.10;51.30;;;;;;5084207;28;20489;-78
2021/01/10 10:50:18;;;;;;;11.30;9.23;;;8.30;50.20;;;;;;5080409;28;20540;-77
2021/01/10 10:52:45;;;;;;;12.67;10.73;;;8.50;50.10;;;;;;5083360;28;20513;-78
2021/01/10 10:55:12;;;;;;;11.23;9.50;;;8.90;49.60;;;;;;5086483;28;20459;-78
2021/01/10 10:57:41;;;;;;;9.83;8.80;;;9.30;49.20;;;;;;5081634;28;20458;-78
2021/01/10 11:00:08;;;;;;;10.20;9.20;;;9.70;48.40;;;;;;5079519;28;20455;-77
2021/01/10 11:02:35;;;;;;;10.67;9.67;;;10.20;46.40;;;;;;5088608;28;20459;-78
2021/01/10 11:05:02;;;;;;;11.03;8.70;;;10.60;45.10;;;;;;5079422;28;20477;-77
2021/01/10 11:07:31;;;;;;;10.73;9.03;;;11.10;44.80;;;;;;5089869;28;20514;-76
2021/01/10 11:09:57;;;;;;;10.07;9.07;;;11.50;43.60;;;;;;5085291;28;20958;-76
2021/01/10 11:12:24;;;;;;;10.90;9.80;;;12.00;42.90;;;;;;5090551;28;20447;-77
2021/01/10 11:14:50;;;;;;;8.80;8.00;;;12.50;41.90;;;;;;5074734;28;20455;-77
2021/01/10 11:17:18;;;;;;;10.57;9.57;;;12.90;40.30;;;;;;5089646;28;20581;-77
2021/01/10 11:19:48;;;;;;;10.23;9.33;;;13.30;39.30;;;;;;5084118;28;20448;-77
2021/01/10 11:22:15;;;;;;;12.53;9.30;;;13.60;38.50;;;;;;5091754;28;20938;-76
2021/01/10 11:24:42;;;;;;;8.87;7.97;;;13.80;38.30;;;;;;5091655;28;20503;-76
2021/01/10 11:27:10;;;;;;;10.00;9.00;;;14.30;37.70;;;;;;5087944;28;20523;-78
2021/01/10 11:29:37;;;;;;;9.23;8.43;;;15.20;36.80;;;;;;5087720;28;20450;-77
2021/01/10 11:32:04;;;;;;;11.47;9.83;;;15.60;35.30;;;;;;5091726;28;20469;-76
2021/01/10 11:34:32;;;;;;;11.13;9.43;;;15.50;35.30;;;;;;5091881;28;20950;-75
2021/01/10 11:36:58;;;;;;;10.73;9.73;;;16.20;34.60;;;;;;5092489;28;20818;-75
2021/01/10 11:39:26;;;;;;;11.20;9.57;;;16.70;33.90;;;;;;5092271;28;20533;-78
2021/01/10 11:41:54;;;;;;;10.97;9.93;;;17.20;32.50;;;;;;5090734;28;20469;-75
2021/01/10 11:44:22;;;;;;;11.60;10.50;;;16.50;32.20;;;;;;5090106;28;20455;-75
2021/01/10 11:46:50;;;;;;;10.87;9.80;;;15.70;32.60;;;;;;5092030;28;20455;-75
2021/01/10 11:49:17;;;;;;;10.03;9.03;;;14.70;33.50;;;;;;5090494;28;21011;-76
2021/01/10 11:51:45;;;;;;;9.47;8.60;;;13.60;34.60;;;;;;5086343;28;20447;-74
2021/01/10 11:54:12;;;;;;;10.07;9.03;;;12.20;36.40;;;;;;5089559;28;20457;-74
2021/01/10 11:56:40;;;;;;;10.70;9.60;;;11.20;37.90;;;;;;5087980;28;20494;-73
2021/01/10 11:59:07;;;;;;;9.87;8.80;;;10.50;39.60;;;;;;5085632;28;20815;-75
2021/01/10 12:01:34;;;;;;;9.43;8.53;;;10.00;41.60;;;;;;5090561;28;20522;-73
2021/01/10 12:04:01;;;;;;;10.13;9.13;;;9.60;42.80;;;;;;5090423;28;20445;-74
2021/01/10 12:06:28;;;;;;;12.10;8.40;;;9.20;43.60;;;;;;5088850;28;20477;-74
2021/01/10 12:08:55;;;;;;;9.97;7.37;;;8.80;44.30;;;;;;5091438;28;20489;-74
2021/01/10 12:11:21;;;;;;;10.93;9.10;;;8.50;45.00;;;;;;5080919;28;20459;-74
2021/01/10 12:13:49;;;;;;;10.30;9.20;;;8.20;45.70;;;;;;5082726;28;20513;-75
2021/01/10 12:16:17;;;;;;;11.13;8.77;;;8.00;46.40;;;;;;5076338;28;20463;-74
2021/01/10 12:18:44;;;;;;;9.63;8.07;;;7.90;47.10;;;;;;5081842;28;20461;-74
2021/01/10 12:21:12;;;;;;;9.30;8.40;;;7.60;47.40;;;;;;5095991;28;20446;-75
2021/01/10 12:23:40;;;;;;;10.80;8.70;;;7.50;47.90;;;;;;5089933;28;20519;-74
2021/01/10 12:26:08;;;;;;;10.50;9.50;;;7.20;48.50;;;;;;5095395;28;20451;-76
2021/01/10 12:28:35;;;;;;;11.83;8.87;;;7.20;49.00;;;;;;5094863;28;20569;-75
2021/01/10 12:31:03;;;;;;;9.93;8.90;;;7.20;49.30;;;;;;5095153;28;20959;-75
2021/01/10 12:33:29;;;;;;;7.00;6.40;;;7.30;49.50;;;;;;5091928;28;20461;-75
2021/01/10 12:35:56;;;;;;;7.97;6.97;;;7.30;49.40;;;;;;5079617;28;20922;-76
2021/01/10 12:38:22;;;;;;;6.57;5.97;;;7.30;49.30;;;;;;5093556;28;20511;-75
2021/01/10 12:40:49;;;;;;;8.07;7.33;;;7.20;49.10;;;;;;5094754;28;20460;-75
2021/01/10 12:43:15;;;;;;;7.17;6.23;;;7.00;49.30;;;;;;5095111;28;20877;-75
2021/01/10 12:45:42;;;;;;;8.33;6.77;;;7.00;49.60;;;;;;5084089;28;20488;-75
2021/01/10 12:48:10;;;;;;;6.90;6.20;;;6.90;49.70;;;;;;5094100;28;20490;-76
2021/01/10 12:50:37;;;;;;;7.50;6.10;;;6.80;49.70;;;;;;5094016;28;20457;-75
2021/01/10 12:53:04;;;;;;;7.63;6.47;;;6.70;49.70;;;;;;5094320;28;20464;-75